createdAt,value
2023-01-13T00:02:21.759Z,3.50
2023-01-13T00:04:48.214Z,2.97
2023-01-13T00:07:14.664Z,3.25
2023-01-13T00:09:41.056Z,3.67
2023-01-13T00:12:07.484Z,3.58
2023-01-13T00:14:35.314Z,2.75
2023-01-13T00:17:02.728Z,2.75
2023-01-13T00:19:29.472Z,3.58
2023-01-13T00:21:55.949Z,2.65
2023-01-13T00:24:22.370Z,3.40
2023-01-13T00:26:48.777Z,3.75
2023-01-13T00:29:15.260Z,3.00
2023-01-13T00:31:41.652Z,3.40
2023-01-13T00:34:08.057Z,3.72
2023-01-13T00:36:34.434Z,2.92
2023-01-13T00:39:00.883Z,3.40
2023-01-13T00:41:29.016Z,2.60
2023-01-13T00:43:55.429Z,3.17
2023-01-13T00:46:22.039Z,2.70
2023-01-13T00:48:49.568Z,3.00
2023-01-13T00:51:20.808Z,3.55
2023-01-13T00:53:49.384Z,3.15
2023-01-13T00:56:34.046Z,2.50
2023-01-13T00:59:04.821Z,2.45
2023-01-13T01:04:26.433Z,2.60
2023-01-13T01:06:52.817Z,2.80
2023-01-13T01:09:19.260Z,3.60
2023-01-13T01:11:45.770Z,1.98
2023-01-13T01:14:13.624Z,2.80
2023-01-13T01:16:41.294Z,2.50
2023-01-13T01:19:08.103Z,2.65
2023-01-13T01:21:35.068Z,2.50
2023-01-13T01:24:03.358Z,2.30
2023-01-13T01:26:30.860Z,3.07
2023-01-13T01:28:57.487Z,2.20
2023-01-13T01:31:31.236Z,2.97
2023-01-13T01:33:58.307Z,2.57
2023-01-13T01:36:26.687Z,2.63
2023-01-13T01:38:53.114Z,2.73
2023-01-13T01:41:22.252Z,2.60
2023-01-13T01:43:59.945Z,2.70
2023-01-13T01:46:37.898Z,2.30
2023-01-13T01:49:06.083Z,2.33
2023-01-13T01:51:36.996Z,2.10
2023-01-13T01:54:04.886Z,2.13
2023-01-13T01:56:32.826Z,2.60
2023-01-13T01:58:59.251Z,2.63
2023-01-13T02:01:25.855Z,2.10
2023-01-13T02:03:57.843Z,1.90
2023-01-13T02:06:24.488Z,2.23
2023-01-13T02:08:51.912Z,2.00
2023-01-13T02:11:48.067Z,2.93
2023-01-13T02:14:14.762Z,2.20
2023-01-13T02:16:50.493Z,2.40
2023-01-13T02:19:41.312Z,2.33
2023-01-13T02:22:15.413Z,2.40
2023-01-13T02:24:55.045Z,1.97
2023-01-13T02:27:46.956Z,1.97
2023-01-13T02:30:37.388Z,1.90
2023-01-13T02:33:10.900Z,2.20
2023-01-13T02:35:44.718Z,2.43
2023-01-13T02:38:13.376Z,2.27
2023-01-13T02:41:29.512Z,2.53
2023-01-13T02:44:07.465Z,1.83
2023-01-13T02:47:06.454Z,1.90
2023-01-13T02:49:39.041Z,1.70
2023-01-13T02:52:10.887Z,1.47
2023-01-13T02:54:38.858Z,1.40
2023-01-13T02:57:06.670Z,1.67
2023-01-13T02:59:33.895Z,1.47
2023-01-13T03:02:01.327Z,1.60
2023-01-13T03:04:49.222Z,1.30
2023-01-13T03:08:03.733Z,2.07
2023-01-13T03:10:50.031Z,1.00
2023-01-13T03:13:36.355Z,1.27
2023-01-13T03:17:04.616Z,1.20
2023-01-13T03:19:57.456Z,1.33
2023-01-13T03:22:32.235Z,1.03
2023-01-13T03:25:17.510Z,1.50
2023-01-13T03:27:53.349Z,1.30
2023-01-13T03:30:27.744Z,1.03
2023-01-13T03:32:58.378Z,0.90
2023-01-13T03:35:34.333Z,1.03
2023-01-13T03:38:07.482Z,1.20
2023-01-13T03:40:38.049Z,1.10
2023-01-13T03:43:26.897Z,1.77
2023-01-13T03:45:57.430Z,1.00
2023-01-13T03:48:26.672Z,1.30
2023-01-13T03:50:56.343Z,1.50
2023-01-13T03:53:32.923Z,1.80
2023-01-13T03:56:03.288Z,1.60
2023-01-13T03:58:33.723Z,1.57
2023-01-13T04:01:05.720Z,1.83
2023-01-13T04:03:42.820Z,1.40
2023-01-13T04:06:21.199Z,1.00
2023-01-13T04:08:52.578Z,1.77
2023-01-13T04:11:27.935Z,1.83
2023-01-13T04:13:55.287Z,2.10
2023-01-13T04:16:21.756Z,1.73
2023-01-13T04:18:49.813Z,1.80
2023-01-13T04:21:16.328Z,1.20
2023-01-13T04:23:42.787Z,1.70
2023-01-13T04:26:09.237Z,1.67
2023-01-13T04:28:35.696Z,1.40
2023-01-13T04:31:02.235Z,1.97
2023-01-13T04:33:28.774Z,1.70
2023-01-13T04:35:55.292Z,2.20
2023-01-13T04:38:22.019Z,1.70
2023-01-13T04:40:48.470Z,2.07
2023-01-13T04:43:15.710Z,1.80
2023-01-13T04:45:43.026Z,2.37
2023-01-13T04:48:09.893Z,1.77
2023-01-13T04:50:36.662Z,1.90
2023-01-13T04:53:03.389Z,1.53
2023-01-13T04:55:29.948Z,1.80
2023-01-13T04:58:01.684Z,1.97
2023-01-13T05:00:28.182Z,1.70
2023-01-13T05:02:54.649Z,2.20
2023-01-13T05:05:21.115Z,2.17
2023-01-13T05:07:47.567Z,1.57
2023-01-13T05:10:14.367Z,2.00
2023-01-13T05:12:59.455Z,2.03
2023-01-13T05:15:44.526Z,1.63
2023-01-13T05:18:11.058Z,1.83
2023-01-13T05:20:37.533Z,2.40
2023-01-13T05:23:30.052Z,2.00
2023-01-13T05:25:56.540Z,2.30
2023-01-13T05:28:23.302Z,1.97
2023-01-13T05:30:51.008Z,2.57
2023-01-13T05:33:18.922Z,2.20
2023-01-13T05:35:46.448Z,1.93
2023-01-13T05:38:13.382Z,1.70
2023-01-13T05:40:59.696Z,2.10
2023-01-13T05:43:26.839Z,2.27
2023-01-13T05:46:00.618Z,2.93
2023-01-13T05:48:32.255Z,2.03
2023-01-13T05:50:58.875Z,2.10
2023-01-13T05:53:25.525Z,2.10
2023-01-13T05:55:52.133Z,2.43
2023-01-13T05:58:20.266Z,2.00
2023-01-13T06:00:47.218Z,3.20
2023-01-13T06:03:14.560Z,2.60
2023-01-13T06:05:41.993Z,3.63
2023-01-13T06:08:08.614Z,3.70
2023-01-13T06:10:35.490Z,2.80
2023-01-13T06:13:02.552Z,2.77
2023-01-13T06:15:28.991Z,2.40
2023-01-13T06:17:56.535Z,3.17
2023-01-13T06:20:23.864Z,5.90
2023-01-13T06:22:52.207Z,2.47
2023-01-13T06:25:26.699Z,2.67
2023-01-13T06:27:54.806Z,2.37
2023-01-13T06:30:21.256Z,3.37
2023-01-13T06:32:54.799Z,1.90
2023-01-13T06:35:26.984Z,3.30
2023-01-13T06:37:54.368Z,1.77
2023-01-13T06:40:21.243Z,2.10
2023-01-13T06:43:16.102Z,2.20
2023-01-13T06:45:53.528Z,2.90
2023-01-13T06:48:22.915Z,2.33
2023-01-13T06:50:49.378Z,2.00
2023-01-13T06:53:15.891Z,2.30
2023-01-13T06:55:42.378Z,2.07
2023-01-13T06:58:08.856Z,2.03
2023-01-13T07:00:37.169Z,2.40
2023-01-13T07:03:15.150Z,2.20
2023-01-13T07:05:43.093Z,2.10
2023-01-13T07:08:10.016Z,2.13
2023-01-13T07:10:37.453Z,2.00
2023-01-13T07:13:23.795Z,2.30
2023-01-13T07:15:58.963Z,2.50
2023-01-13T07:18:27.474Z,3.10
2023-01-13T07:20:55.541Z,2.47
2023-01-13T07:23:22.084Z,2.40
2023-01-13T07:25:48.897Z,2.57
2023-01-13T07:28:15.737Z,2.43
2023-01-13T07:30:42.175Z,2.67
2023-01-13T07:33:08.676Z,3.17
2023-01-13T07:35:35.126Z,3.30
2023-01-13T07:38:01.567Z,2.50
2023-01-13T07:40:28.097Z,2.50
2023-01-13T07:43:13.038Z,3.00
2023-01-13T07:45:39.558Z,3.30
2023-01-13T07:48:06.157Z,2.97
2023-01-13T07:50:32.603Z,2.37
2023-01-13T07:52:59.121Z,2.37
2023-01-13T07:55:25.568Z,2.23
2023-01-13T07:57:52.273Z,2.10
2023-01-13T08:00:19.176Z,1.83
2023-01-13T08:02:45.642Z,2.50
2023-01-13T08:05:12.351Z,2.30
2023-01-13T08:07:40.260Z,2.57
2023-01-13T08:10:07.288Z,2.80
2023-01-13T08:12:57.008Z,2.93
2023-01-13T08:15:23.677Z,2.83
2023-01-13T08:17:50.212Z,2.73
2023-01-13T08:20:16.849Z,2.70
2023-01-13T08:22:44.234Z,3.23
2023-01-13T08:25:10.713Z,2.70
2023-01-13T08:27:37.282Z,2.70
2023-01-13T08:30:05.553Z,3.67
2023-01-13T08:32:32.014Z,2.90
2023-01-13T08:34:58.464Z,3.73
2023-01-13T08:37:24.925Z,3.10
2023-01-13T08:39:51.385Z,3.40
2023-01-13T08:42:17.863Z,2.50
2023-01-13T08:44:44.295Z,2.40
2023-01-13T08:47:10.821Z,2.80
2023-01-13T08:49:37.303Z,2.33
2023-01-13T08:52:04.711Z,3.53
2023-01-13T08:54:31.243Z,3.30
2023-01-13T08:56:57.791Z,3.50
2023-01-13T08:59:24.496Z,2.90
2023-01-13T09:01:51.168Z,3.17
2023-01-13T09:04:20.426Z,5.17
2023-01-13T09:06:47.487Z,3.90
2023-01-13T09:09:14.012Z,3.70
2023-01-13T09:12:01.832Z,4.10
2023-01-13T09:14:30.744Z,3.63
2023-01-13T09:16:57.582Z,4.23
2023-01-13T09:19:24.319Z,3.57
2023-01-13T09:21:52.483Z,3.80
2023-01-13T09:24:19.733Z,3.57
2023-01-13T09:26:46.495Z,4.53
2023-01-13T09:29:12.961Z,4.17
2023-01-13T09:31:39.457Z,3.90
2023-01-13T09:34:25.042Z,4.10
2023-01-13T09:36:51.494Z,3.50
2023-01-13T09:39:17.970Z,3.97
2023-01-13T09:42:06.315Z,4.30
2023-01-13T09:44:42.193Z,5.40
2023-01-13T09:47:17.652Z,3.90
2023-01-13T09:49:44.177Z,5.07
2023-01-13T09:52:16.734Z,4.40
2023-01-13T09:54:45.089Z,4.03
2023-01-13T09:57:14.513Z,3.67
2023-01-13T09:59:41.490Z,4.60
2023-01-13T10:02:26.962Z,4.07
2023-01-13T10:05:05.682Z,4.67
2023-01-13T10:07:34.805Z,4.40
2023-01-13T10:10:02.950Z,4.23
2023-01-13T10:12:49.704Z,4.87
2023-01-13T10:15:19.602Z,4.63
2023-01-13T10:17:56.362Z,4.37
2023-01-13T10:20:26.908Z,4.40
2023-01-13T10:23:20.948Z,4.60
2023-01-13T10:26:20.998Z,5.37
2023-01-13T10:28:57.213Z,4.87
2023-01-13T10:31:24.588Z,4.03
2023-01-13T10:34:03.910Z,3.70
2023-01-13T10:36:30.401Z,3.00
2023-01-13T10:39:15.398Z,3.10
2023-01-13T10:41:41.895Z,3.20
2023-01-13T10:44:18.941Z,3.60
2023-01-13T10:46:54.109Z,3.83
2023-01-13T10:49:28.416Z,3.43
2023-01-13T10:51:54.974Z,3.40
2023-01-13T10:54:23.421Z,4.57
2023-01-13T10:56:50.585Z,3.23
2023-01-13T10:59:18.481Z,3.20
2023-01-13T11:02:13.097Z,2.87
2023-01-13T11:04:55.737Z,3.03
2023-01-13T11:07:42.273Z,3.23
2023-01-13T11:10:35.175Z,2.50
2023-01-13T11:13:14.364Z,2.50
2023-01-13T11:16:04.596Z,2.10
2023-01-13T11:18:51.962Z,2.50
2023-01-13T11:21:24.791Z,1.50
2023-01-13T11:24:26.038Z,2.00
2023-01-13T11:26:59.575Z,2.10
2023-01-13T11:29:38.863Z,1.70
2023-01-13T11:32:11.956Z,1.70
2023-01-13T11:34:40.554Z,2.07
2023-01-13T11:37:20.526Z,1.60
2023-01-13T11:39:57.823Z,1.90
2023-01-13T11:42:28.792Z,1.80
2023-01-13T11:45:17.184Z,1.20
2023-01-13T11:47:46.023Z,1.83
2023-01-13T11:50:41.534Z,1.40
2023-01-13T11:53:28.511Z,1.50
2023-01-13T11:56:02.726Z,1.80
2023-01-13T11:58:50.642Z,1.30
2023-01-13T12:01:42.483Z,1.33
2023-01-13T12:04:22.755Z,1.27
2023-01-13T12:07:03.081Z,2.13
2023-01-13T12:09:44.776Z,1.27
2023-01-13T12:12:27.539Z,1.50
2023-01-13T12:15:06.227Z,1.43
2023-01-13T12:17:41.080Z,1.20
2023-01-13T12:20:40.446Z,1.20
2023-01-13T12:23:26.197Z,1.20
2023-01-13T12:25:54.870Z,1.20
2023-01-13T12:28:37.060Z,1.50
2023-01-13T12:31:03.765Z,1.27
2023-01-13T12:33:44.518Z,1.10
2023-01-13T12:36:35.708Z,1.90
2023-01-13T12:39:18.692Z,1.27
2023-01-13T12:42:09.775Z,1.20
2023-01-13T12:44:36.255Z,1.27
2023-01-13T12:47:02.744Z,1.17
2023-01-13T12:49:31.827Z,1.53
2023-01-13T12:52:07.117Z,1.00
2023-01-13T12:54:53.738Z,1.00
2023-01-13T12:57:24.134Z,1.10
2023-01-13T12:59:59.458Z,1.03
2023-01-13T13:02:29.212Z,1.43
2023-01-13T13:04:57.771Z,1.10
2023-01-13T13:07:29.875Z,1.47
2023-01-13T13:10:00.511Z,1.17
2023-01-13T13:13:00.983Z,1.10
2023-01-13T13:15:29.325Z,1.30
2023-01-13T13:17:58.816Z,0.90
2023-01-13T13:20:54.481Z,1.47
2023-01-13T13:23:33.080Z,1.30
2023-01-13T13:26:24.921Z,1.30
2023-01-13T13:29:19.785Z,1.07
2023-01-13T13:32:08.368Z,1.40
2023-01-13T13:34:38.838Z,1.20
2023-01-13T13:37:25.432Z,1.10
2023-01-13T13:40:10.747Z,1.13
2023-01-13T13:43:01.564Z,1.60
2023-01-13T13:45:46.839Z,1.00
2023-01-13T13:48:20.463Z,1.07
2023-01-13T13:50:49.463Z,0.70
2023-01-13T13:53:18.957Z,0.57
2023-01-13T13:56:16.330Z,0.60
2023-01-13T13:58:42.956Z,0.67
2023-01-13T14:01:23.649Z,0.50
2023-01-13T14:04:04.532Z,1.10
2023-01-13T14:06:32.963Z,0.90
2023-01-13T14:08:59.472Z,0.80
2023-01-13T14:11:36.080Z,0.80
2023-01-13T14:14:11.917Z,1.23
2023-01-13T14:16:40.194Z,0.77
2023-01-13T14:19:16.529Z,1.00
2023-01-13T14:21:47.856Z,0.90
2023-01-13T14:24:16.303Z,1.03
2023-01-13T14:26:42.804Z,1.03
2023-01-13T14:29:16.634Z,0.70
2023-01-13T14:31:43.778Z,1.00
2023-01-13T14:34:31.425Z,0.60
2023-01-13T14:36:57.397Z,0.63
2023-01-13T14:39:25.828Z,0.60
2023-01-13T14:41:53.324Z,0.63
2023-01-13T14:44:28.984Z,0.70
2023-01-13T14:46:57.223Z,0.77
2023-01-13T14:49:30.443Z,0.83
2023-01-13T14:52:05.508Z,0.80
2023-01-13T14:54:40.983Z,0.67
2023-01-13T14:57:16.348Z,0.70
2023-01-13T14:59:43.417Z,1.00
2023-01-13T15:02:25.238Z,0.90
2023-01-13T15:04:58.707Z,0.80
2023-01-13T15:07:27.384Z,0.70
2023-01-13T15:09:58.813Z,1.10
2023-01-13T15:12:38.192Z,0.90
2023-01-13T15:15:28.542Z,0.90
2023-01-13T15:17:55.002Z,1.00
2023-01-13T15:20:23.558Z,1.20
2023-01-13T15:22:50.790Z,1.00
2023-01-13T15:25:17.989Z,1.50
2023-01-13T15:27:45.468Z,1.37
2023-01-13T15:30:16.245Z,1.93
2023-01-13T15:32:43.195Z,1.40
2023-01-13T15:35:14.193Z,2.13
2023-01-13T15:37:41.378Z,0.93
2023-01-13T15:40:19.218Z,0.83
2023-01-13T15:43:04.513Z,0.53
2023-01-13T15:45:50.966Z,0.50
2023-01-13T15:48:18.327Z,0.60
2023-01-13T15:50:44.802Z,0.40
2023-01-13T15:53:14.435Z,0.90
2023-01-13T15:55:42.814Z,0.43
2023-01-13T15:58:11.985Z,0.60
2023-01-13T16:00:38.953Z,1.20
2023-01-13T16:03:05.531Z,0.70
2023-01-13T16:05:31.979Z,0.70
2023-01-13T16:07:58.481Z,0.80
2023-01-13T16:10:27.315Z,0.57
2023-01-13T16:12:55.840Z,0.60
2023-01-13T16:15:22.676Z,0.70
2023-01-13T16:17:54.581Z,1.03
2023-01-13T16:20:21.095Z,1.07
2023-01-13T16:22:47.607Z,1.00
2023-01-13T16:25:18.267Z,0.83
2023-01-13T16:27:45.437Z,1.00
2023-01-13T16:30:28.045Z,1.00
2023-01-13T16:32:55.161Z,1.13
2023-01-13T16:35:22.136Z,1.13
2023-01-13T16:37:49.208Z,1.03
2023-01-13T16:40:31.214Z,0.80
2023-01-13T16:42:57.951Z,0.80
2023-01-13T16:45:25.025Z,0.60
2023-01-13T16:47:51.627Z,0.90
2023-01-13T16:50:36.101Z,1.00
2023-01-13T16:53:04.195Z,0.70
2023-01-13T16:55:30.676Z,0.97
2023-01-13T16:57:57.135Z,0.60
2023-01-13T17:00:23.895Z,0.60
2023-01-13T17:02:50.411Z,0.97
2023-01-13T17:05:17.001Z,1.00
2023-01-13T17:07:45.213Z,1.07
2023-01-13T17:10:18.273Z,1.30
2023-01-13T17:12:44.796Z,0.80
2023-01-13T17:15:12.704Z,1.70
2023-01-13T17:17:40.638Z,1.20
2023-01-13T17:20:08.973Z,0.97
2023-01-13T17:22:35.498Z,1.10
2023-01-13T17:25:01.987Z,1.40
2023-01-13T17:27:28.500Z,1.10
2023-01-13T17:29:55.042Z,1.23
2023-01-13T17:32:23.012Z,1.27
2023-01-13T17:34:49.679Z,1.00
2023-01-13T17:37:17.175Z,1.40
2023-01-13T17:39:44.431Z,1.63
2023-01-13T17:42:11.338Z,1.17
2023-01-13T17:44:38.243Z,2.30
2023-01-13T17:47:05.238Z,1.90
2023-01-13T17:49:31.783Z,2.00
2023-01-13T17:51:58.236Z,2.27
2023-01-13T17:54:25.023Z,1.50
2023-01-13T17:56:51.479Z,1.67
2023-01-13T17:59:19.232Z,2.00
2023-01-13T18:01:45.964Z,2.23
2023-01-13T18:04:17.331Z,1.80
2023-01-13T18:06:44.139Z,2.03
2023-01-13T18:09:10.837Z,2.20
2023-01-13T18:11:37.502Z,2.57
2023-01-13T18:14:04.050Z,2.43
2023-01-13T18:16:31.763Z,2.43
2023-01-13T18:19:19.187Z,2.87
2023-01-13T18:22:04.779Z,2.20
2023-01-13T18:24:49.940Z,3.20
2023-01-13T18:27:24.241Z,2.70
2023-01-13T18:29:52.916Z,2.33
2023-01-13T18:32:19.818Z,1.83
2023-01-13T18:34:46.414Z,1.33
2023-01-13T18:37:14.220Z,1.50
2023-01-13T18:39:40.846Z,1.50
2023-01-13T18:42:27.739Z,1.27
2023-01-13T18:44:56.804Z,1.27
2023-01-13T18:47:28.696Z,1.00
2023-01-13T18:49:56.659Z,1.20
2023-01-13T18:52:24.377Z,1.30
2023-01-13T18:54:51.025Z,2.73
2023-01-13T18:57:17.738Z,1.40
2023-01-13T18:59:44.372Z,1.40
2023-01-13T19:02:15.352Z,1.27
2023-01-13T19:04:42.128Z,1.73
2023-01-13T19:07:12.322Z,1.57
2023-01-13T19:09:39.429Z,1.27
2023-01-13T19:12:09.970Z,1.60
2023-01-13T19:14:37.718Z,1.10
2023-01-13T19:17:09.254Z,1.30
2023-01-13T19:19:39.866Z,1.17
2023-01-13T19:22:07.056Z,1.20
2023-01-13T19:24:33.613Z,2.53
2023-01-13T19:27:00.304Z,3.70
2023-01-13T19:29:27.025Z,4.07
2023-01-13T19:31:53.536Z,4.60
2023-01-13T19:34:20.412Z,4.73
2023-01-13T19:36:46.834Z,4.10
2023-01-13T19:39:13.950Z,2.67
2023-01-13T19:41:59.055Z,2.25
2023-01-13T19:44:44.235Z,3.00
2023-01-13T19:47:10.725Z,2.13
2023-01-13T19:49:37.207Z,2.53
2023-01-13T19:52:03.827Z,3.10
2023-01-13T19:54:30.422Z,2.93
2023-01-13T19:56:56.875Z,2.60
2023-01-13T19:59:29.020Z,2.70
2023-01-13T20:01:57.158Z,2.20
2023-01-13T20:04:29.414Z,3.00
2023-01-13T20:06:56.701Z,3.07
2023-01-13T20:09:23.166Z,2.57
2023-01-13T20:11:52.753Z,2.30
2023-01-13T20:14:19.791Z,3.63
2023-01-13T20:16:46.904Z,3.00
2023-01-13T20:19:13.489Z,2.53
2023-01-13T20:21:40.870Z,3.20
2023-01-13T20:24:09.848Z,3.40
2023-01-13T20:26:38.350Z,2.63
2023-01-13T20:29:04.914Z,2.80
2023-01-13T20:31:31.405Z,2.33
2023-01-13T20:33:57.896Z,2.50
2023-01-13T20:36:44.040Z,2.20
2023-01-13T20:39:20.041Z,2.77
2023-01-13T20:42:05.081Z,2.70
2023-01-13T20:44:31.795Z,2.53
2023-01-13T20:46:59.069Z,2.80
2023-01-13T20:49:27.023Z,1.90
2023-01-13T20:51:53.728Z,1.37
2023-01-13T20:54:21.007Z,1.40
2023-01-13T20:56:47.666Z,1.90
2023-01-13T20:59:14.197Z,1.90
2023-01-13T21:01:40.971Z,2.57
2023-01-13T21:04:08.029Z,1.77
2023-01-13T21:06:34.845Z,1.43
2023-01-13T21:09:01.279Z,1.33
2023-01-13T21:11:47.486Z,1.40
2023-01-13T21:14:50.875Z,2.13
2023-01-13T21:17:35.863Z,1.57
2023-01-13T21:20:04.583Z,2.30
2023-01-13T21:22:31.239Z,1.87
2023-01-13T21:24:58.444Z,2.27
2023-01-13T21:27:25.431Z,2.10
2023-01-13T21:29:51.900Z,2.40
2023-01-13T21:32:18.375Z,2.00
2023-01-13T21:34:44.836Z,2.50
2023-01-13T21:37:11.331Z,2.50
2023-01-13T21:39:37.854Z,2.33
2023-01-13T21:42:23.217Z,1.50
2023-01-13T21:45:08.037Z,2.10
2023-01-13T21:47:49.318Z,1.93
2023-01-13T21:50:27.871Z,1.73
2023-01-13T21:52:54.956Z,1.83
2023-01-13T21:55:29.150Z,1.93
2023-01-13T21:58:12.969Z,1.97
2023-01-13T22:00:41.031Z,1.83
2023-01-13T22:03:08.611Z,2.23
2023-01-13T22:05:35.333Z,1.90
2023-01-13T22:08:01.890Z,2.33
2023-01-13T22:10:30.075Z,2.10
2023-01-13T22:12:59.287Z,2.03
2023-01-13T22:15:27.938Z,2.67
2023-01-13T22:17:55.194Z,2.43
2023-01-13T22:20:22.207Z,3.20
2023-01-13T22:22:49.287Z,2.77
2023-01-13T22:25:16.788Z,2.60
2023-01-13T22:27:44.616Z,2.90
2023-01-13T22:30:13.985Z,3.20
2023-01-13T22:32:40.439Z,2.37
2023-01-13T22:35:10.797Z,2.50
2023-01-13T22:37:37.918Z,2.00
2023-01-13T22:40:06.897Z,2.70
2023-01-13T22:42:37.064Z,2.63
2023-01-13T22:45:04.628Z,2.37
2023-01-13T22:47:31.316Z,2.73
2023-01-13T22:49:57.823Z,2.10
2023-01-13T22:52:24.664Z,2.60
2023-01-13T22:54:51.170Z,2.03
2023-01-13T22:57:18.846Z,2.07
2023-01-13T22:59:46.727Z,2.30
2023-01-13T23:02:13.244Z,2.20
2023-01-13T23:04:39.936Z,2.33
2023-01-13T23:07:06.482Z,2.33
2023-01-13T23:09:33.258Z,1.90
2023-01-13T23:11:59.768Z,2.10
2023-01-13T23:14:26.299Z,1.70
2023-01-13T23:16:53.001Z,2.60
2023-01-13T23:19:19.850Z,2.20
2023-01-13T23:21:46.321Z,2.97
2023-01-13T23:24:12.957Z,2.00
2023-01-13T23:26:39.659Z,2.00
2023-01-13T23:29:08.995Z,1.93
2023-01-13T23:31:35.509Z,2.07
2023-01-13T23:34:02.418Z,1.97
2023-01-13T23:36:29.125Z,2.33
2023-01-13T23:38:58.234Z,1.57
2023-01-13T23:41:26.033Z,1.70
2023-01-13T23:43:56.342Z,2.07
2023-01-13T23:46:23.521Z,1.60
2023-01-13T23:48:50.749Z,2.00
2023-01-13T23:51:18.104Z,1.07
2023-01-13T23:53:48.181Z,1.13
2023-01-13T23:56:17.193Z,1.27
2023-01-13T23:58:44.455Z,1.27
